Time;durP1;ratioP1;P1;durP2;ratioP2;P2;SDS_P1;SDS_P2;PMS_P1;PMS_P2;Temp;Humidity;BMP_temperature;BMP_pressure;BME280_temperature;BME280_humidity;BME280_pressure;Samples;Min_cycle;Max_cycle;Signal;HPM_P1;HPM_P2
2022/03/13 00:00:26;;;;;;;;;72.80;60.40;25.80;99.90;;;;;;5020137;28;8869;-65
2022/03/13 00:02:55;;;;;;;;;73.40;60.20;25.90;99.90;;;;;;5019987;28;8837;-66
2022/03/13 00:05:22;;;;;;;;;73.40;61.40;25.90;99.90;;;;;;5034014;28;8902;-65
2022/03/13 00:07:50;;;;;;;;;63.00;51.40;26.00;99.90;;;;;;5018446;28;8771;-65
2022/03/13 00:10:24;;;;;;;;;75.20;67.80;25.90;99.90;;;;;;5034971;28;8774;-65
2022/03/13 00:12:50;;;;;;;;;68.60;53.20;26.00;99.90;;;;;;5008108;28;8758;-65
2022/03/13 00:15:17;;;;;;;;;77.60;70.60;26.00;99.90;;;;;;4997384;28;9037;-65
2022/03/13 00:17:47;;;;;;;;;78.60;68.80;26.10;99.90;;;;;;4998580;28;8777;-66
2022/03/13 00:20:14;;;;;;;;;76.80;67.80;25.50;99.90;;;;;;4999874;28;8872;-66
2022/03/13 00:22:41;;;;;;;;;77.80;70.20;26.00;99.90;;;;;;4998471;28;8913;-65
2022/03/13 00:25:09;;;;;;;;;71.20;63.60;26.00;99.90;;;;;;5000285;28;8796;-66
2022/03/13 00:27:36;;;;;;;;;73.40;60.00;26.00;99.90;;;;;;5017990;28;8779;-65
2022/03/13 00:30:05;;;;;;;;;71.80;61.00;26.10;99.90;;;;;;5001820;28;8877;-65
2022/03/13 00:32:31;;;;;;;;;75.20;62.40;26.20;99.90;;;;;;5018981;28;8783;-65
2022/03/13 00:34:59;;;;;;;;;74.40;65.00;26.20;99.90;;;;;;5019538;28;8781;-66
2022/03/13 00:37:25;;;;;;;;;75.40;66.80;26.20;99.90;;;;;;5017721;28;8723;-64
2022/03/13 00:39:56;;;;;;;;;75.00;66.40;26.20;99.90;;;;;;5019542;28;8778;-65
2022/03/13 00:42:23;;;;;;;;;79.40;71.40;26.30;99.90;;;;;;5018938;28;8740;-65
2022/03/13 00:44:50;;;;;;;;;76.80;64.60;26.30;99.90;;;;;;5034550;28;8798;-65
2022/03/13 00:47:18;;;;;;;;;75.40;58.40;26.30;99.90;;;;;;5017670;28;8750;-64
2022/03/13 00:49:46;;;;;;;;;75.40;65.20;26.40;99.90;;;;;;5019041;28;8798;-65
2022/03/13 00:52:12;;;;;;;;;80.20;71.40;26.40;99.90;;;;;;5019182;28;8763;-66
2022/03/13 00:54:39;;;;;;;;;80.00;75.40;26.50;99.90;;;;;;5033879;28;8787;-66
2022/03/13 00:57:06;;;;;;;;;83.40;76.80;26.40;99.90;;;;;;5017430;28;8833;-65
2022/03/13 00:59:33;;;;;;;;;85.00;75.00;26.40;99.90;;;;;;5018450;28;8790;-66
2022/03/13 01:01:59;;;;;;;;;84.20;76.00;26.50;99.90;;;;;;5017228;28;8785;-66
2022/03/13 01:04:26;;;;;;;;;75.40;68.00;26.50;99.90;;;;;;5018552;28;8739;-65
2022/03/13 01:06:53;;;;;;;;;76.60;66.80;26.50;99.90;;;;;;5017395;28;8889;-66
2022/03/13 01:09:19;;;;;;;;;81.00;73.80;26.60;99.90;;;;;;5000574;28;8755;-65
2022/03/13 01:11:46;;;;;;;;;79.20;73.20;26.70;99.90;;;;;;5018449;28;8774;-66
2022/03/13 01:14:13;;;;;;;;;78.80;70.80;26.80;99.90;;;;;;5017896;28;8901;-66
2022/03/13 01:16:43;;;;;;;;;80.40;70.80;26.70;99.90;;;;;;5018090;28;8820;-66
2022/03/13 01:19:10;;;;;;;;;79.00;72.20;26.90;99.90;;;;;;5017689;28;9420;-66
2022/03/13 01:21:40;;;;;;;;;81.40;76.00;26.90;99.90;;;;;;5018250;28;8774;-66
2022/03/13 01:24:06;;;;;;;;;78.40;73.40;27.00;99.90;;;;;;5018470;28;8759;-66
2022/03/13 01:26:36;;;;;;;;;79.80;74.80;27.10;99.90;;;;;;5017046;28;8759;-66
2022/03/13 01:29:05;;;;;;;;;81.60;75.80;27.10;99.90;;;;;;5018000;28;8720;-66
2022/03/13 01:31:34;;;;;;;;;83.60;77.80;27.20;99.90;;;;;;5017867;28;8845;-66
2022/03/13 01:34:01;;;;;;;;;78.40;72.60;27.20;99.90;;;;;;5018642;28;8935;-66
2022/03/13 01:36:27;;;;;;;;;79.40;72.00;27.30;99.90;;;;;;5033023;28;8754;-65
2022/03/13 01:38:57;;;;;;;;;78.00;70.20;27.40;99.90;;;;;;5018070;28;8751;-66
2022/03/13 01:41:24;;;;;;;;;81.80;70.60;27.40;99.90;;;;;;5017716;28;8758;-66
2022/03/13 01:43:52;;;;;;;;;79.60;71.00;27.50;99.90;;;;;;5017696;28;8767;-66
2022/03/13 01:46:19;;;;;;;;;74.60;62.80;27.50;99.90;;;;;;5016803;28;8759;-63
2022/03/13 01:48:56;;;;;;;;;76.00;65.20;27.50;99.90;;;;;;5017539;28;8731;-66
2022/03/13 01:51:24;;;;;;;;;67.40;55.40;27.60;99.90;;;;;;5017444;28;8759;-65
2022/03/13 01:53:58;;;;;;;;;80.80;73.00;27.60;99.90;;;;;;5017638;28;8857;-66
2022/03/13 01:56:25;;;;;;;;;75.80;68.60;27.80;99.90;;;;;;5017159;28;9400;-66
2022/03/13 01:58:55;;;;;;;;;73.40;65.20;27.90;99.90;;;;;;5017452;28;8809;-65
2022/03/13 02:01:22;;;;;;;;;76.20;66.20;27.90;99.90;;;;;;5017878;28;9423;-65
2022/03/13 02:03:49;;;;;;;;;73.60;62.00;28.00;99.90;;;;;;5016176;28;8863;-66
2022/03/13 02:06:16;;;;;;;;;74.00;61.00;28.10;99.90;;;;;;5017445;28;8759;-66
2022/03/13 02:08:43;;;;;;;;;66.00;54.60;28.20;99.90;;;;;;5016004;28;8777;-66
2022/03/13 02:11:10;;;;;;;;;70.00;57.20;28.30;99.90;;;;;;5032495;28;8797;-66
2022/03/13 02:13:37;;;;;;;;;67.20;55.80;28.50;99.90;;;;;;5017004;28;8758;-66
2022/03/13 02:16:05;;;;;;;;;70.20;58.20;28.50;99.90;;;;;;5032980;28;8767;-66
2022/03/13 02:18:33;;;;;;;;;70.00;56.00;28.60;99.90;;;;;;5017126;28;8735;-66
2022/03/13 02:20:59;;;;;;;;;68.60;55.00;28.70;99.90;;;;;;5017294;28;8763;-66
2022/03/13 02:23:28;;;;;;;;;65.60;53.60;28.80;99.90;;;;;;5017129;28;8755;-66
2022/03/13 02:26:01;;;;;;;;;70.80;55.00;28.90;99.90;;;;;;5015595;28;8775;-66
2022/03/13 02:28:32;;;;;;;;;70.20;57.00;28.90;99.90;;;;;;5031894;28;8743;-65
2022/03/13 02:31:01;;;;;;;;;67.20;55.20;28.90;99.90;;;;;;5032637;28;8783;-66
2022/03/13 02:33:28;;;;;;;;;69.40;56.40;28.90;99.90;;;;;;5031879;28;8786;-65
2022/03/13 02:35:58;;;;;;;;;72.40;57.80;28.90;99.90;;;;;;5032184;28;8802;-66
2022/03/13 02:38:26;;;;;;;;;71.80;59.40;29.00;99.90;;;;;;5031632;28;8849;-66
2022/03/13 02:40:53;;;;;;;;;67.20;52.20;29.00;99.90;;;;;;5032284;28;8793;-66
2022/03/13 02:43:20;;;;;;;;;61.80;50.60;29.00;99.90;;;;;;5019009;28;8738;-65
2022/03/13 02:45:46;;;;;;;;;66.80;54.00;29.10;99.90;;;;;;4995861;28;8888;-65
2022/03/13 02:48:13;;;;;;;;;69.00;55.20;29.20;99.90;;;;;;4996094;28;8790;-65
2022/03/13 02:50:40;;;;;;;;;65.80;52.80;29.30;99.90;;;;;;4997435;28;8801;-66
2022/03/13 02:53:07;;;;;;;;;66.40;52.60;29.30;99.90;;;;;;4997156;28;8791;-66
2022/03/13 02:55:34;;;;;;;;;67.40;52.80;29.30;99.90;;;;;;4996768;28;8915;-65
2022/03/13 02:58:00;;;;;;;;;68.20;54.20;29.40;99.90;;;;;;5008154;28;9435;-66
2022/03/13 03:01:00;;;;;;;;;61.60;48.80;29.40;99.90;;;;;;5016742;28;8821;-66
2022/03/13 03:03:26;;;;;;;;;71.20;55.40;29.50;99.90;;;;;;4994318;28;8787;-65
2022/03/13 03:05:53;;;;;;;;;66.80;52.80;29.50;99.90;;;;;;5005439;28;8822;-66
2022/03/13 03:08:22;;;;;;;;;67.80;53.60;;;;;;;;5031470;28;8759;-65
2022/03/13 03:10:49;;;;;;;;;64.20;51.40;29.70;99.90;;;;;;5031284;28;8755;-65
2022/03/13 03:13:16;;;;;;;;;66.80;53.80;29.70;99.90;;;;;;5016083;28;8856;-66
2022/03/13 03:15:43;;;;;;;;;65.60;53.00;29.70;99.90;;;;;;5015001;28;8845;-65
2022/03/13 03:18:10;;;;;;;;;64.20;50.60;29.80;99.90;;;;;;5016486;28;8980;-65
2022/03/13 03:20:37;;;;;;;;;65.80;53.40;29.80;99.90;;;;;;5016227;28;8805;-65
2022/03/13 03:23:04;;;;;;;;;65.80;50.60;29.90;99.90;;;;;;5016780;28;8844;-65
2022/03/13 03:25:30;;;;;;;;;66.60;54.20;29.90;99.90;;;;;;5016164;28;8747;-65
2022/03/13 03:27:58;;;;;;;;;67.60;52.00;30.00;99.90;;;;;;5016815;28;8810;-66
2022/03/13 03:30:26;;;;;;;;;71.20;54.20;30.00;99.90;;;;;;5015284;28;8771;-65
2022/03/13 03:32:52;;;;;;;;;68.00;54.40;30.10;99.90;;;;;;5016640;28;9466;-66
2022/03/13 03:35:23;;;;;;;;;64.80;50.80;30.10;99.90;;;;;;5014900;28;8944;-65
2022/03/13 03:37:57;;;;;;;;;69.80;55.60;30.20;99.90;;;;;;5015350;28;8763;-66
2022/03/13 03:40:35;;;;;;;;;68.20;55.20;30.30;99.90;;;;;;5030877;28;8751;-65
2022/03/13 03:43:04;;;;;;;;;74.00;58.20;30.40;99.90;;;;;;5030687;28;8771;-66
2022/03/13 03:45:33;;;;;;;;;67.00;54.00;30.40;99.90;;;;;;5015948;28;8849;-66
2022/03/13 03:48:00;;;;;;;;;62.60;50.60;30.40;99.90;;;;;;5015242;28;8775;-66
2022/03/13 03:50:26;;;;;;;;;68.60;54.00;30.50;99.90;;;;;;5017185;28;8789;-66
2022/03/13 03:52:57;;;;;;;;;66.40;53.60;30.40;99.90;;;;;;5034945;28;9401;-65
2022/03/13 03:55:25;;;;;;;;;67.00;53.20;30.50;99.90;;;;;;5018901;28;8775;-66
2022/03/13 03:57:52;;;;;;;;;64.80;53.00;30.50;99.90;;;;;;5025763;28;8888;-66
2022/03/13 04:00:18;;;;;;;;;67.40;53.40;30.60;99.90;;;;;;4998745;28;8766;-63
2022/03/13 04:02:45;;;;;;;;;70.60;57.00;30.60;99.90;;;;;;5000220;28;8753;-66
2022/03/13 04:05:12;;;;;;;;;69.80;54.00;30.60;99.90;;;;;;5000064;28;8912;-66
2022/03/13 04:07:38;;;;;;;;;66.00;54.20;30.70;99.90;;;;;;4999587;28;8795;-66
2022/03/13 04:10:06;;;;;;;;;67.20;54.00;30.90;99.90;;;;;;5000447;28;8745;-66
2022/03/13 04:12:34;;;;;;;;;64.80;51.80;31.00;99.90;;;;;;5006318;28;8781;-66
2022/03/13 04:15:01;;;;;;;;;67.20;54.00;31.10;99.90;;;;;;5019362;28;8798;-66
2022/03/13 04:17:28;;;;;;;;;58.80;47.20;31.20;99.90;;;;;;5018272;28;8821;-65
2022/03/13 04:19:55;;;;;;;;;66.00;53.60;31.30;99.90;;;;;;5018123;28;8791;-66
2022/03/13 04:22:22;;;;;;;;;67.00;53.80;31.30;99.90;;;;;;5018278;28;8735;-66
2022/03/13 04:24:49;;;;;;;;;63.60;49.80;31.30;99.90;;;;;;5034315;28;8773;-66
2022/03/13 04:27:15;;;;;;;;;63.00;49.20;31.30;99.90;;;;;;5018878;28;8759;-66
2022/03/13 04:29:42;;;;;;;;;63.40;50.60;31.50;99.90;;;;;;5019166;28;8739;-66
2022/03/13 04:32:11;;;;;;;;;65.60;53.20;;;;;;;;5001789;28;8763;-66
2022/03/13 04:34:37;;;;;;;;;64.80;51.40;31.60;99.90;;;;;;5018567;28;8818;-66
2022/03/13 04:37:05;;;;;;;;;62.40;50.20;31.70;99.90;;;;;;5035117;28;8751;-66
2022/03/13 04:39:35;;;;;;;;;63.80;52.00;31.80;99.90;;;;;;5018536;28;8782;-65
2022/03/13 04:42:05;;;;;;;;;64.25;52.50;31.80;99.90;;;;;;5017498;28;8757;-65
2022/03/13 04:44:32;;;;;;;;;65.40;52.20;31.80;99.90;;;;;;5018928;28;8759;-65
2022/03/13 04:47:00;;;;;;;;;63.60;51.80;31.90;99.90;;;;;;5034296;28;8779;-66
2022/03/13 04:49:26;;;;;;;;;62.00;50.00;31.90;99.90;;;;;;5018601;28;8739;-65
2022/03/13 04:51:53;;;;;;;;;56.60;45.40;31.90;99.60;;;;;;5019382;28;8763;-66
2022/03/13 04:54:20;;;;;;;;;62.75;50.25;32.00;99.90;;;;;;5018164;28;8739;-65
2022/03/13 04:56:46;;;;;;;;;63.40;50.20;32.00;99.90;;;;;;5033879;28;8743;-65
2022/03/13 04:59:13;;;;;;;;;63.60;51.00;32.10;99.90;;;;;;5018517;28;8743;-65
2022/03/13 05:01:40;;;;;;;;;59.80;48.80;32.10;98.70;;;;;;5033334;28;9030;-65
2022/03/13 05:04:07;;;;;;;;;61.60;49.80;32.20;99.30;;;;;;5019131;28;9489;-66
2022/03/13 05:06:40;;;;;;;;;62.60;49.20;32.30;98.50;;;;;;5018080;28;8850;-66
2022/03/13 05:09:07;;;;;;;;;59.00;48.20;32.40;98.20;;;;;;5032923;28;8779;-65
2022/03/13 05:11:33;;;;;;;;;66.20;51.20;32.40;99.10;;;;;;5018082;28;8802;-65
2022/03/13 05:14:00;;;;;;;;;61.40;47.80;32.40;98.10;;;;;;5018168;28;8771;-65
2022/03/13 05:16:27;;;;;;;;;59.20;48.40;32.40;98.20;;;;;;5018306;28;8763;-65
2022/03/13 05:18:54;;;;;;;;;61.80;50.00;32.60;98.80;;;;;;5018946;28;8774;-65
2022/03/13 05:21:20;;;;;;;;;57.00;44.40;32.70;98.60;;;;;;5018005;28;8813;-65
2022/03/13 05:23:47;;;;;;;;;61.00;48.75;32.70;97.80;;;;;;5018536;28;8775;-65
2022/03/13 05:26:13;;;;;;;;;55.80;44.40;32.80;98.20;;;;;;5018628;28;8782;-65
2022/03/13 05:28:40;;;;;;;;;58.60;48.20;32.90;98.00;;;;;;5016907;28;8766;-65
2022/03/13 05:31:07;;;;;;;;;56.00;44.80;32.90;97.20;;;;;;4999147;28;8746;-65
2022/03/13 05:33:34;;;;;;;;;56.50;46.50;32.80;96.80;;;;;;4998379;28;8880;-65
2022/03/13 05:36:01;;;;;;;;;61.20;49.20;32.80;97.20;;;;;;4997313;28;8765;-66
2022/03/13 05:38:28;;;;;;;;;61.20;48.60;32.90;97.30;;;;;;4998375;28;8804;-65
2022/03/13 05:40:55;;;;;;;;;61.00;49.20;33.00;97.90;;;;;;4998287;28;8778;-66
2022/03/13 05:43:22;;;;;;;;;55.20;45.40;;;;;;;;5011675;28;8767;-65
2022/03/13 05:45:52;;;;;;;;;59.80;46.80;33.20;97.10;;;;;;5017817;28;8761;-66
2022/03/13 05:48:20;;;;;;;;;59.40;46.00;33.40;97.30;;;;;;5032702;28;8782;-64
2022/03/13 05:50:46;;;;;;;;;57.50;46.00;33.40;96.60;;;;;;5017927;28;8763;-66
2022/03/13 05:53:13;;;;;;;;;57.60;45.80;33.40;96.40;;;;;;5017607;28;8790;-65
2022/03/13 05:55:40;;;;;;;;;58.25;45.00;33.40;96.60;;;;;;5017386;28;9420;-65
2022/03/13 05:58:06;;;;;;;;;58.00;47.00;33.40;96.70;;;;;;5018058;28;8814;-65
2022/03/13 06:00:33;;;;;;;;;55.80;44.60;33.40;95.90;;;;;;5017401;28;8790;-65
2022/03/13 06:03:00;;;;;;;;;60.60;49.60;33.50;96.10;;;;;;5017620;28;9458;-65
2022/03/13 06:05:27;;;;;;;;;56.20;44.40;33.60;96.30;;;;;;5032141;28;8895;-65
2022/03/13 06:07:55;;;;;;;;;55.40;44.60;33.70;95.70;;;;;;5016252;28;8787;-66
2022/03/13 06:10:21;;;;;;;;;51.40;43.20;33.60;94.80;;;;;;5016254;28;8743;-65
2022/03/13 06:12:51;;;;;;;;;46.25;39.25;33.80;94.50;;;;;;5015172;28;8747;-66
2022/03/13 06:15:18;;;;;;;;;53.75;44.00;33.90;93.50;;;;;;5016129;28;8767;-65
2022/03/13 06:17:45;;;;;;;;;49.50;41.25;33.90;92.70;;;;;;5015923;28;8790;-66
2022/03/13 06:20:13;;;;;;;;;53.25;43.25;34.00;91.80;;;;;;5017285;28;8812;-66
2022/03/13 06:22:41;;;;;;;;;53.00;41.50;34.00;91.30;;;;;;5032300;28;8751;-65
2022/03/13 06:25:09;;;;;;;;;53.00;43.50;34.10;92.00;;;;;;5032907;28;8796;-66
2022/03/13 06:27:36;;;;;;;;;50.25;41.50;34.00;92.50;;;;;;5017187;28;8782;-65
2022/03/13 06:30:14;;;;;;;;;47.75;40.25;33.90;93.40;;;;;;5017540;28;9373;-65
2022/03/13 06:32:41;;;;;;;;;50.75;40.25;34.00;91.50;;;;;;5016359;28;8775;-65
2022/03/13 06:35:09;;;;;;;;;49.00;42.00;33.90;91.40;;;;;;5017946;28;8771;-66
2022/03/13 06:37:36;;;;;;;;;52.75;42.50;34.00;91.50;;;;;;5017098;28;8767;-65
2022/03/13 06:40:03;;;;;;;;;49.75;40.25;34.10;91.20;;;;;;5017348;28;8735;-65
2022/03/13 06:42:30;;;;;;;;;48.25;40.00;34.20;88.40;;;;;;5016372;28;8753;-66
2022/03/13 06:44:56;;;;;;;;;43.25;37.50;34.20;89.20;;;;;;5016721;28;9483;-65
2022/03/13 06:47:23;;;;;;;;;51.00;41.00;34.20;89.60;;;;;;5016681;28;8816;-65
2022/03/13 06:49:50;;;;;;;;;46.50;40.00;34.20;90.10;;;;;;5017216;28;9439;-65
2022/03/13 06:52:17;;;;;;;;;51.50;42.00;34.20;90.40;;;;;;5017561;28;8809;-65
2022/03/13 06:54:43;;;;;;;;;42.00;35.25;34.10;89.50;;;;;;5016870;28;8762;-65
2022/03/13 06:57:11;;;;;;;;;47.25;37.25;34.20;90.10;;;;;;5016697;28;8755;-65
2022/03/13 06:59:37;;;;;;;;;50.25;40.00;34.20;89.20;;;;;;5016340;28;8779;-65
2022/03/13 07:02:04;;;;;;;;;50.25;40.75;34.40;90.10;;;;;;4999174;28;8771;-65
2022/03/13 07:04:30;;;;;;;;;46.75;39.50;34.50;90.00;;;;;;5031738;28;9236;-65
2022/03/13 07:06:57;;;;;;;;;46.25;39.50;34.50;89.60;;;;;;5032277;28;8789;-65
2022/03/13 07:09:26;;;;;;;;;49.00;40.50;34.60;89.00;;;;;;5016341;28;8735;-65
2022/03/13 07:11:52;;;;;;;;;47.25;38.00;34.60;89.20;;;;;;5016536;28;8735;-65
2022/03/13 07:14:21;;;;;;;;;50.75;41.00;34.60;89.90;;;;;;5015404;28;8731;-65
2022/03/13 07:16:48;;;;;;;;;46.25;39.50;34.60;89.40;;;;;;5017283;28;8739;-65
2022/03/13 07:19:15;;;;;;;;;47.00;40.50;34.70;88.40;;;;;;5017619;28;8782;-65
2022/03/13 07:21:41;;;;;;;;;41.50;35.25;34.70;87.50;;;;;;5016373;28;8770;-65
2022/03/13 07:24:08;;;;;;;;;48.00;39.75;34.70;86.70;;;;;;5017505;28;8759;-66
2022/03/13 07:26:35;;;;;;;;;52.25;42.25;34.70;86.50;;;;;;5019998;28;8762;-65
2022/03/13 07:29:01;;;;;;;;;46.25;39.50;34.70;87.10;;;;;;5020218;28;8790;-65
2022/03/13 07:31:31;;;;;;;;;49.50;41.50;34.70;86.00;;;;;;5020452;28;8787;-64
2022/03/13 07:33:58;;;;;;;;;47.00;37.75;34.60;86.20;;;;;;5020439;28;8783;-65
2022/03/13 07:36:25;;;;;;;;;46.25;38.00;34.60;87.20;;;;;;5019653;28;9130;-65
2022/03/13 07:38:51;;;;;;;;;46.50;39.00;34.60;85.60;;;;;;5034819;28;8790;-66
2022/03/13 07:41:18;;;;;;;;;47.00;39.00;34.70;84.60;;;;;;5020010;28;8758;-65
2022/03/13 07:43:44;;;;;;;;;40.75;34.75;34.70;84.10;;;;;;5018876;28;8861;-66
2022/03/13 07:46:11;;;;;;;;;42.50;36.00;34.70;85.00;;;;;;5020550;28;8810;-66
2022/03/13 07:48:38;;;;;;;;;47.00;38.75;34.70;86.20;;;;;;5034895;28;8862;-65
2022/03/13 07:51:05;;;;;;;;;49.75;41.00;34.70;83.50;;;;;;5020142;28;8829;-66
2022/03/13 07:53:32;;;;;;;;;46.50;37.75;34.80;83.50;;;;;;5019609;28;8802;-65
2022/03/13 07:55:58;;;;;;;;;42.25;36.50;34.90;83.60;;;;;;5019790;28;8829;-65
2022/03/13 07:58:25;;;;;;;;;43.00;37.25;34.90;83.90;;;;;;5019361;28;8759;-65
2022/03/13 08:00:52;;;;;;;;;45.75;37.75;35.00;83.60;;;;;;5020499;28;8747;-66
2022/03/13 08:03:22;;;;;;;;;47.75;38.50;34.90;82.80;;;;;;5019644;28;8739;-65
2022/03/13 08:05:49;;;;;;;;;45.50;39.00;34.90;84.70;;;;;;5034178;28;8802;-65
2022/03/13 08:08:15;;;;;;;;;48.50;39.50;35.00;84.30;;;;;;5019761;28;8778;-65
2022/03/13 08:10:42;;;;;;;;;48.25;39.25;35.10;84.00;;;;;;5034408;28;8838;-65
2022/03/13 08:13:08;;;;;;;;;45.00;37.50;35.00;82.20;;;;;;5019908;28;8925;-65
2022/03/13 08:15:35;;;;;;;;;40.00;33.00;35.10;82.00;;;;;;5034348;28;8771;-65
2022/03/13 08:18:02;;;;;;;;;43.50;36.25;35.20;80.20;;;;;;5018508;28;8805;-65
2022/03/13 08:20:29;;;;;;;;;44.00;37.00;35.20;81.90;;;;;;5019361;28;8852;-65
2022/03/13 08:22:58;;;;;;;;;44.25;36.25;35.20;82.30;;;;;;5019443;28;8810;-65
2022/03/13 08:25:28;;;;;;;;;41.75;35.25;35.20;82.60;;;;;;5018974;28;8743;-64
2022/03/13 08:27:55;;;;;;;;;44.50;37.75;35.20;81.90;;;;;;5019599;28;8767;-65
2022/03/13 08:30:22;;;;;;;;;45.50;38.50;35.20;81.40;;;;;;5034124;28;8751;-64
2022/03/13 08:32:49;;;;;;;;;43.75;37.50;35.30;82.30;;;;;;5017719;28;9524;-65
2022/03/13 08:35:17;;;;;;;;;44.50;37.25;35.30;82.10;;;;;;5034175;28;9452;-65
2022/03/13 08:37:44;;;;;;;;;46.00;37.50;35.20;79.60;;;;;;5018502;28;8781;-65
2022/03/13 08:40:11;;;;;;;;;46.25;37.75;;;;;;;;5019694;28;8801;-65
2022/03/13 08:42:38;;;;;;;;;47.00;39.50;35.20;79.50;;;;;;5018613;28;8779;-65
2022/03/13 08:45:05;;;;;;;;;36.75;31.50;35.40;80.80;;;;;;5034363;28;8731;-65
2022/03/13 08:47:32;;;;;;;;;37.25;32.50;35.30;81.10;;;;;;5017517;28;8755;-65
2022/03/13 08:49:58;;;;;;;;;48.75;38.75;35.30;80.80;;;;;;5019194;28;8785;-65
2022/03/13 08:52:25;;;;;;;;;40.75;34.50;35.20;81.30;;;;;;5017548;28;8727;-64
2022/03/13 08:54:52;;;;;;;;;41.00;35.75;35.20;81.50;;;;;;5019562;28;8767;-65
2022/03/13 08:57:18;;;;;;;;;39.75;35.25;35.20;80.90;;;;;;5028866;28;8765;-64
2022/03/13 08:59:46;;;;;;;;;46.00;38.50;35.20;80.10;;;;;;4999157;28;8749;-65
2022/03/13 09:02:12;;;;;;;;;38.00;32.00;35.10;79.30;;;;;;4998062;28;8730;-65
2022/03/13 09:04:41;;;;;;;;;45.25;37.50;35.00;80.80;;;;;;4998506;28;8754;-65
2022/03/13 09:07:07;;;;;;;;;46.00;37.00;34.90;80.70;;;;;;4999202;28;8750;-65
2022/03/13 09:09:34;;;;;;;;;48.25;38.75;34.90;81.80;;;;;;4998670;28;8792;-65
2022/03/13 09:12:02;;;;;;;;;47.25;38.75;34.80;81.50;;;;;;5000919;28;8722;-66
2022/03/13 09:14:29;;;;;;;;;47.00;37.25;34.80;82.70;;;;;;5018162;28;8798;-65
2022/03/13 09:16:56;;;;;;;;;47.50;39.25;34.80;81.40;;;;;;5018865;28;8835;-65
2022/03/13 09:19:22;;;;;;;;;43.25;35.75;34.70;81.40;;;;;;5018999;28;8755;-65
2022/03/13 09:21:49;;;;;;;;;44.75;37.50;34.80;81.60;;;;;;5017046;28;8837;-64
2022/03/13 09:24:16;;;;;;;;;44.00;36.50;34.90;83.10;;;;;;5018307;28;8829;-65
2022/03/13 09:26:43;;;;;;;;;47.00;38.75;34.80;85.10;;;;;;5016778;28;8770;-65
2022/03/13 09:29:10;;;;;;;;;47.50;39.00;34.70;85.00;;;;;;4999272;28;8760;-65
2022/03/13 09:31:36;;;;;;;;;45.50;38.00;34.70;81.90;;;;;;5013948;28;8896;-65
2022/03/13 09:34:03;;;;;;;;;46.00;38.50;34.70;82.60;;;;;;4997586;28;8761;-65
2022/03/13 09:36:30;;;;;;;;;48.00;40.75;34.80;83.10;;;;;;4998417;28;8761;-66
2022/03/13 09:38:56;;;;;;;;;47.50;37.75;34.80;84.60;;;;;;4998671;28;9524;-65
2022/03/13 09:41:23;;;;;;;;;44.50;37.50;34.70;83.80;;;;;;4997988;28;8769;-65
2022/03/13 09:43:50;;;;;;;;;48.50;39.25;34.70;82.20;;;;;;5013711;28;9408;-65
2022/03/13 09:46:16;;;;;;;;;44.00;37.75;34.80;83.60;;;;;;5033516;28;8770;-65
2022/03/13 09:48:43;;;;;;;;;46.50;39.75;34.70;82.50;;;;;;5015203;28;9423;-65
2022/03/13 09:51:10;;;;;;;;;43.00;37.75;34.60;83.20;;;;;;5017762;28;10043;-65
2022/03/13 09:53:37;;;;;;;;;46.75;39.00;34.60;81.60;;;;;;5017541;28;8888;-65
2022/03/13 09:56:05;;;;;;;;;49.75;40.25;34.60;81.20;;;;;;5017380;28;8794;-65
2022/03/13 09:58:32;;;;;;;;;47.75;39.00;34.60;82.40;;;;;;5017533;28;9426;-64
2022/03/13 10:00:59;;;;;;;;;46.75;38.50;34.50;82.10;;;;;;4997337;28;8737;-65
2022/03/13 10:03:25;;;;;;;;;44.75;36.50;34.50;83.80;;;;;;4997760;28;8750;-65
2022/03/13 10:05:54;;;;;;;;;47.25;40.00;34.40;84.10;;;;;;4980619;28;8848;-65
2022/03/13 10:08:25;;;;;;;;;46.00;38.75;34.40;85.10;;;;;;4980374;28;8769;-65
2022/03/13 10:10:53;;;;;;;;;46.25;38.75;34.30;85.10;;;;;;4964934;28;8781;-64
2022/03/13 10:13:52;;;;;;;;;48.00;39.50;34.40;84.50;;;;;;5009976;28;8767;-64
2022/03/13 10:16:22;;;;;;;;;47.25;39.00;34.30;85.10;;;;;;4984753;28;8799;-64
2022/03/13 10:18:49;;;;;;;;;45.25;38.00;34.20;86.50;;;;;;5032942;28;8775;-65
2022/03/13 10:21:19;;;;;;;;;48.00;39.00;34.20;86.90;;;;;;5017441;28;8802;-65
2022/03/13 10:23:49;;;;;;;;;44.50;38.50;34.10;86.20;;;;;;5017445;28;8779;-65
2022/03/13 10:26:19;;;;;;;;;47.75;39.00;34.10;87.00;;;;;;5032422;28;8786;-65
2022/03/13 10:28:46;;;;;;;;;46.75;38.25;34.00;87.90;;;;;;4999472;28;8750;-65
2022/03/13 10:31:18;;;;;;;;;41.25;35.25;34.00;91.50;;;;;;4998222;28;8758;-65
2022/03/13 10:33:48;;;;;;;;;48.50;41.25;33.90;91.70;;;;;;4997400;28;8753;-65
2022/03/13 10:36:44;;;;;;;;;48.25;40.00;33.80;91.50;;;;;;4997343;28;8789;-65
2022/03/13 10:39:17;;;;;;;;;48.67;40.33;33.80;92.00;;;;;;4996770;28;8824;-65
2022/03/13 10:41:47;;;;;;;;;47.50;39.25;33.70;92.50;;;;;;4997351;28;8769;-65
2022/03/13 10:44:25;;;;;;;;;50.25;41.00;33.60;93.00;;;;;;4995689;28;9051;-65
2022/03/13 10:46:56;;;;;;;;;51.25;42.25;33.40;92.50;;;;;;4996282;28;8745;-65
2022/03/13 10:49:43;;;;;;;;;49.50;40.00;33.30;92.30;;;;;;4998091;28;8780;-65
2022/03/13 10:52:22;;;;;;;;;49.25;40.75;33.30;91.20;;;;;;4998216;28;8752;-65
2022/03/13 10:54:49;;;;;;;;;43.50;37.50;33.30;90.40;;;;;;4997384;28;8875;-65
2022/03/13 10:57:16;;;;;;;;;46.25;39.00;33.40;91.50;;;;;;5000285;28;8759;-65
2022/03/13 10:59:43;;;;;;;;;51.50;41.00;33.30;91.20;;;;;;5018759;28;8781;-65
2022/03/13 11:02:14;;;;;;;;;51.25;42.75;33.30;91.20;;;;;;5023116;28;8781;-65
2022/03/13 11:04:57;;;;;;;;;50.50;42.25;33.30;91.70;;;;;;5037538;28;8873;-65
2022/03/13 11:07:26;;;;;;;;;54.25;45.00;33.10;91.70;;;;;;5023565;28;8815;-65
2022/03/13 11:09:56;;;;;;;;;50.25;41.75;33.10;95.40;;;;;;5023562;28;8771;-65
2022/03/13 11:12:23;;;;;;;;;54.25;44.75;33.10;96.60;;;;;;5032380;28;8880;-65
2022/03/13 11:14:58;;;;;;;;;52.00;43.25;33.10;96.10;;;;;;5003474;28;9348;-65
2022/03/13 11:17:32;;;;;;;;;50.75;41.00;33.00;95.10;;;;;;5003507;28;8765;-65
2022/03/13 11:20:00;;;;;;;;;49.75;41.50;33.00;94.40;;;;;;5003743;28;9451;-65
2022/03/13 11:22:28;;;;;;;;;51.50;40.75;32.90;93.50;;;;;;5001819;28;8764;-65
2022/03/13 11:25:12;;;;;;;;;49.25;42.00;32.90;92.70;;;;;;4986822;28;8761;-65
2022/03/13 11:27:40;;;;;;;;;48.75;41.75;32.90;92.00;;;;;;5026115;28;8763;-65
2022/03/13 11:30:09;;;;;;;;;52.50;42.75;32.90;91.80;;;;;;5038273;28;8784;-65
2022/03/13 11:32:50;;;;;;;;;54.00;43.75;32.80;92.00;;;;;;5037634;28;8932;-65
2022/03/13 11:35:17;;;;;;;;;52.00;44.25;32.70;92.60;;;;;;5038996;28;8779;-65
2022/03/13 11:37:45;;;;;;;;;51.25;42.75;32.80;92.90;;;;;;5023406;28;9389;-65
2022/03/13 11:40:14;;;;;;;;;41.50;36.75;32.70;93.10;;;;;;5023065;28;8750;-65
2022/03/13 11:42:56;;;;;;;;;52.00;44.00;32.60;93.90;;;;;;5004697;28;8848;-65
2022/03/13 11:45:32;;;;;;;;;58.75;46.25;32.60;96.70;;;;;;5003503;28;8788;-65
2022/03/13 11:48:19;;;;;;;;;52.75;43.50;32.50;96.40;;;;;;5003654;28;9439;-65
2022/03/13 11:50:52;;;;;;;;;54.50;45.00;32.40;97.90;;;;;;5003535;28;8773;-66
2022/03/13 11:53:23;;;;;;;;;55.50;44.00;32.30;97.50;;;;;;5008285;28;8824;-64
2022/03/13 11:56:05;;;;;;;;;54.75;45.25;32.30;98.50;;;;;;5002033;28;8796;-65
2022/03/13 11:58:47;;;;;;;;;49.25;38.50;32.20;98.30;;;;;;5016404;28;8770;-65
2022/03/13 12:01:30;;;;;;;;;55.00;45.50;32.20;98.40;;;;;;5024263;28;8751;-66
2022/03/13 12:04:21;;;;;;;;;53.00;44.00;32.20;98.90;;;;;;5022198;28;8782;-65
2022/03/13 12:06:49;;;;;;;;;54.80;44.60;32.10;99.60;;;;;;5023232;28;8830;-66
2022/03/13 12:09:19;;;;;;;;;51.60;42.80;32.10;99.90;;;;;;5021330;28;9481;-66
2022/03/13 12:11:59;;;;;;;;;60.20;48.00;31.90;99.90;;;;;;5019182;28;8783;-65
2022/03/13 12:14:50;;;;;;;;;55.20;44.00;31.80;99.90;;;;;;5019573;28;8799;-65
2022/03/13 12:17:17;;;;;;;;;58.33;47.00;31.80;99.90;;;;;;5019813;28;8770;-65
2022/03/13 12:19:45;;;;;;;;;59.00;46.40;31.80;99.90;;;;;;5019595;28;8747;-65
2022/03/13 12:22:14;;;;;;;;;57.40;45.40;31.70;99.90;;;;;;5035188;28;8763;-66
2022/03/13 12:24:54;;;;;;;;;57.25;46.75;31.60;99.90;;;;;;5019678;28;9184;-66
2022/03/13 12:27:22;;;;;;;;;57.00;46.00;31.70;99.20;;;;;;5017968;28;8918;-65
2022/03/13 12:29:55;;;;;;;;;62.80;50.80;31.70;99.80;;;;;;5034437;28;8775;-65
2022/03/13 12:32:29;;;;;;;;;61.00;49.40;31.60;99.30;;;;;;5018150;28;8802;-65
2022/03/13 12:34:56;;;;;;;;;66.20;51.80;31.60;99.90;;;;;;5017745;28;8802;-65
2022/03/13 12:37:26;;;;;;;;;62.20;47.60;31.50;99.30;;;;;;5019537;28;8861;-65
2022/03/13 12:40:00;;;;;;;;;64.60;50.40;31.50;99.70;;;;;;5018341;28;8759;-65
2022/03/13 12:42:34;;;;;;;;;62.20;48.80;31.40;99.40;;;;;;5002228;28;8791;-65
2022/03/13 12:45:11;;;;;;;;;61.25;48.50;31.40;99.90;;;;;;4997801;28;8762;-65